createdAt,value
2022-08-09T00:03:03.103Z,4132
2022-08-09T00:08:31.768Z,4147
2022-08-09T00:13:27.985Z,4186
2022-08-09T00:18:40.431Z,4173
2022-08-09T00:23:54.176Z,4062
2022-08-09T00:29:12.277Z,4194
2022-08-09T00:34:19.085Z,4158
2022-08-09T00:40:10.048Z,4175
2022-08-09T00:44:42.033Z,4173
2022-08-09T00:49:54.748Z,4181
2022-08-09T00:55:06.767Z,4179
2022-08-09T01:00:20.959Z,4192
2022-08-09T01:05:46.376Z,4194
2022-08-09T01:10:43.888Z,4162
2022-08-09T01:15:56.086Z,4140
2022-08-09T01:26:21.021Z,4157
2022-08-09T01:32:30.421Z,4121
2022-08-09T01:36:48.431Z,4186
2022-08-09T01:42:04.074Z,4108
2022-08-09T01:47:12.978Z,4171
2022-08-09T01:52:25.398Z,4155
2022-08-09T01:57:40.043Z,4114
2022-08-09T02:02:49.946Z,4129
2022-08-09T02:08:36.473Z,4171
2022-08-09T02:13:14.575Z,4099
2022-08-09T02:18:26.937Z,4149
2022-08-09T02:23:39.583Z,4140
2022-08-09T02:28:51.791Z,4155
2022-08-09T02:34:07.669Z,4138
2022-08-09T02:39:20.202Z,4158
2022-08-09T02:44:29.631Z,4093
2022-08-09T02:49:41.603Z,4198
2022-08-09T02:54:54.747Z,4168
2022-08-09T03:00:11.590Z,4175
2022-08-09T03:05:18.243Z,4185
2022-08-09T03:10:30.690Z,4131
2022-08-09T03:16:05.002Z,4162
2022-08-09T03:20:55.522Z,4188
2022-08-09T03:26:08.033Z,4118
2022-08-09T03:31:21.461Z,4041
2022-08-09T03:36:32.790Z,4119
2022-08-09T03:41:46.103Z,4123
2022-08-09T03:46:57.561Z,4138
2022-08-09T03:52:09.781Z,4179
2022-08-09T03:57:22.117Z,4095
2022-08-09T04:02:34.458Z,4158
2022-08-09T04:07:48.006Z,4118
2022-08-09T04:13:00.888Z,4149
2022-08-09T04:18:16.827Z,4099
2022-08-09T04:23:24.800Z,4142
2022-08-09T04:28:36.656Z,4151
2022-08-09T04:33:53.274Z,4166
2022-08-09T04:39:00.790Z,4160
2022-08-09T04:44:14.361Z,4166
2022-08-09T04:49:30.613Z,4142
2022-08-09T04:54:37.524Z,4155
2022-08-09T04:59:50.258Z,4186
2022-08-09T05:05:04.404Z,4162
2022-08-09T05:10:17.270Z,4185
2022-08-09T05:15:38.886Z,4155
2022-08-09T05:20:41.725Z,4168
2022-08-09T05:25:54.073Z,4183
2022-08-09T05:31:07.429Z,4166
2022-08-09T05:36:19.186Z,4144
2022-08-09T05:41:31.503Z,4183
2022-08-09T05:46:43.933Z,4166
2022-08-09T05:51:56.692Z,4168
2022-08-09T05:57:12.630Z,4162
2022-08-09T06:02:21.327Z,4166
2022-08-09T06:07:33.559Z,4164
2022-08-09T06:12:46.006Z,4142
2022-08-09T06:17:58.530Z,4164
2022-08-09T06:23:11.933Z,4168
2022-08-09T06:28:27.388Z,4186
2022-08-09T06:33:40.278Z,4129
2022-08-09T06:38:50.069Z,4166
2022-08-09T06:44:00.227Z,4166
2022-08-09T06:49:12.558Z,4140
2022-08-09T06:54:26.198Z,4171
2022-08-09T07:00:48.154Z,4179
2022-08-09T07:04:49.623Z,4192
2022-08-09T07:10:12.781Z,4175
2022-08-09T07:15:53.583Z,4173
2022-08-09T07:20:26.727Z,4179
2022-08-09T07:25:42.761Z,4162
2022-08-09T07:30:52.031Z,4194
2022-08-09T07:36:04.353Z,4168
2022-08-09T07:41:16.711Z,4144
2022-08-09T07:46:29.119Z,4153
2022-08-09T07:52:04.117Z,4153
2022-08-09T07:56:53.799Z,4155
2022-08-09T08:02:06.229Z,4183
2022-08-09T08:08:44.876Z,4171
2022-08-09T08:12:31.175Z,4125
2022-08-09T08:17:52.804Z,4129
2022-08-09T08:23:03.975Z,4155
2022-08-09T08:28:18.094Z,4149
2022-08-09T08:33:40.585Z,4177
2022-08-09T08:43:53.805Z,4145
2022-08-09T08:49:12.707Z,4194
2022-08-09T08:54:29.673Z,4196
2022-08-09T08:59:44.742Z,4160
2022-08-09T09:04:47.983Z,4155
2022-08-09T09:10:02.554Z,4129
2022-08-09T09:15:12.078Z,4158
2022-08-09T09:20:23.040Z,4173
2022-08-09T09:26:02.651Z,4198
2022-08-09T09:30:47.686Z,4106
2022-08-09T09:36:01.126Z,4166
2022-08-09T09:41:12.295Z,4147
2022-08-09T09:46:42.771Z,4186
2022-08-09T09:51:38.287Z,4186
2022-08-09T09:56:53.527Z,4196
2022-08-09T10:02:02.014Z,4168
2022-08-09T10:07:14.162Z,4196
2022-08-09T10:12:27.926Z,4205
2022-08-09T10:17:51.384Z,4192
2022-08-09T10:22:51.233Z,4225
2022-08-09T10:28:03.697Z,4196
2022-08-09T10:33:29.992Z,4205
2022-08-09T10:38:33.684Z,4225
2022-08-09T10:43:46.680Z,4181
2022-08-09T10:48:52.843Z,4220
2022-08-09T10:54:05.271Z,4255
2022-08-09T10:59:17.686Z,4229
2022-08-09T11:04:32.216Z,4229
2022-08-09T11:14:54.970Z,4220
2022-08-09T11:20:08.307Z,4238
2022-08-09T11:25:21.436Z,4246
2022-08-09T11:30:34.215Z,4240
2022-08-09T11:35:47.242Z,4266
2022-08-09T11:40:57.498Z,4285
2022-08-09T11:46:10.237Z,4270
2022-08-09T11:52:49.684Z,4266
2022-08-09T11:56:42.134Z,4253
2022-08-09T12:02:01.392Z,4272
2022-08-09T12:06:59.416Z,4274
2022-08-09T12:12:12.000Z,4251
2022-08-09T12:17:28.366Z,4274
2022-08-09T12:29:00.957Z,4264
2022-08-09T12:33:01.138Z,4257
2022-08-09T12:38:13.613Z,4294
2022-08-09T12:44:04.739Z,4270
2022-08-09T12:48:38.632Z,4270
2022-08-09T12:53:52.635Z,4278
2022-08-09T12:59:03.360Z,4278
2022-08-09T13:04:33.420Z,4283
2022-08-09T13:14:41.961Z,4248
2022-08-09T13:20:07.838Z,4257
2022-08-09T13:25:04.444Z,4278
2022-08-09T13:30:49.666Z,4276
2022-08-09T13:35:34.336Z,4251
2022-08-09T13:41:22.296Z,4261
2022-08-09T13:46:08.210Z,4261
2022-08-09T13:51:05.671Z,4270
2022-08-09T13:56:18.261Z,4251
2022-08-09T14:01:55.818Z,4257
2022-08-09T14:06:43.747Z,4248
2022-08-09T14:11:55.276Z,4259
2022-08-09T14:17:12.000Z,4285
2022-08-09T14:22:23.308Z,4261
2022-08-09T14:27:39.349Z,4276
2022-08-09T14:32:47.945Z,4291
2022-08-09T14:38:01.854Z,4276
2022-08-09T14:43:15.972Z,4279
2022-08-09T14:48:26.792Z,4281
2022-08-09T14:53:38.827Z,4285
2022-08-09T14:58:50.204Z,4285
2022-08-09T15:04:02.456Z,4296
2022-08-09T15:09:14.688Z,4266
2022-08-09T15:14:26.969Z,4281
2022-08-09T15:19:54.733Z,4278
2022-08-09T15:24:51.407Z,4291
2022-08-09T15:30:49.276Z,4268
2022-08-09T15:35:40.954Z,4259
2022-08-09T15:40:31.899Z,4237
2022-08-09T15:45:51.476Z,4289
2022-08-09T15:50:55.564Z,4272
2022-08-09T15:56:21.813Z,4250
2022-08-09T16:01:20.519Z,4259
2022-08-09T16:06:35.963Z,4257
2022-08-09T16:11:49.390Z,4261
2022-08-09T16:16:56.385Z,4235
2022-08-09T16:22:14.737Z,4287
2022-08-09T16:27:21.755Z,4287
2022-08-09T16:32:35.256Z,4281
2022-08-09T16:37:54.296Z,4255
2022-08-09T16:42:58.731Z,4231
2022-08-09T16:48:37.288Z,4294
2022-08-09T16:53:23.181Z,4294
2022-08-09T16:58:35.594Z,4285
2022-08-09T17:03:48.011Z,4287
2022-08-09T17:09:11.921Z,4289
2022-08-09T17:14:16.124Z,4302
2022-08-09T17:19:25.576Z,4266
2022-08-09T17:24:41.304Z,4278
2022-08-09T17:29:50.768Z,4278
2022-08-09T17:35:10.433Z,4278
2022-08-09T17:40:18.298Z,4253
2022-08-09T17:45:37.449Z,4281
2022-08-09T17:50:48.460Z,4248
2022-08-09T17:56:00.165Z,4278
2022-08-09T18:01:06.836Z,4270
2022-08-09T18:06:22.517Z,4281
2022-08-09T18:11:31.151Z,4270
2022-08-09T18:16:49.000Z,4246
2022-08-09T18:21:55.616Z,4285
2022-08-09T18:27:08.065Z,4270
2022-08-09T18:32:20.152Z,4270
2022-08-09T18:37:48.323Z,4259
2022-08-09T18:42:44.617Z,4250
2022-08-09T18:53:13.679Z,4246
2022-08-09T18:58:32.353Z,4235
2022-08-09T19:03:54.850Z,4248
2022-08-09T19:08:55.130Z,4244
2022-08-09T19:14:07.087Z,4251
2022-08-09T19:19:21.595Z,4238
2022-08-09T19:24:38.161Z,4244
2022-08-09T19:30:21.822Z,4235
2022-08-09T19:34:56.033Z,4248
2022-08-09T19:40:08.422Z,4257
2022-08-09T19:45:20.479Z,4220
2022-08-09T19:50:48.699Z,4244
2022-08-09T19:55:53.267Z,4196
2022-08-09T20:00:57.647Z,4179
2022-08-09T20:06:10.614Z,4209
2022-08-09T20:11:26.028Z,4229
2022-08-09T20:16:49.824Z,4203
2022-08-09T20:21:55.290Z,4188
2022-08-09T20:26:59.159Z,4225
2022-08-09T20:32:16.903Z,4199
2022-08-09T20:37:23.722Z,4056
2022-08-09T20:42:35.947Z,4222
2022-08-09T20:47:48.827Z,4250
2022-08-09T20:53:00.790Z,4231
2022-08-09T20:58:20.053Z,4244
2022-08-09T21:03:25.039Z,4240
2022-08-09T21:08:40.233Z,4222
2022-08-09T21:20:04.748Z,4220
2022-08-09T21:24:19.317Z,4244
2022-08-09T21:29:29.688Z,4229
2022-08-09T21:34:45.050Z,4240
2022-08-09T21:39:54.466Z,4212
2022-08-09T21:45:06.718Z,4238
2022-08-09T21:50:22.310Z,4229
2022-08-09T21:55:31.698Z,4237
2022-08-09T22:00:43.921Z,4237
2022-08-09T22:05:57.948Z,4235
2022-08-09T22:11:50.656Z,4179
2022-08-09T22:16:20.794Z,4233
2022-08-09T22:21:45.477Z,4212
2022-08-09T22:26:47.778Z,4192
2022-08-09T22:31:58.045Z,4218
2022-08-09T22:37:12.383Z,4218
2022-08-09T22:42:23.683Z,4203
2022-08-09T22:48:06.471Z,4205
2022-08-09T22:52:46.733Z,4199
2022-08-09T22:58:00.388Z,4216
2022-08-09T23:03:12.482Z,4212
2022-08-09T23:08:29.844Z,4110
2022-08-09T23:13:36.291Z,4198
2022-08-09T23:24:05.875Z,4211
2022-08-09T23:29:13.381Z,4211
2022-08-09T23:34:25.761Z,4211
2022-08-09T23:39:38.246Z,4166
2022-08-09T23:44:50.529Z,4177
2022-08-09T23:50:03.034Z,4171
2022-08-09T23:55:15.171Z,4212
